createdAt,value
2022-08-30T00:01:46.424Z,4.50
2022-08-30T00:04:32.993Z,4.00
2022-08-30T00:07:20.029Z,4.43
2022-08-30T00:10:08.017Z,4.67
2022-08-30T00:12:57.015Z,4.53
2022-08-30T00:15:44.095Z,4.67
2022-08-30T00:18:31.304Z,4.70
2022-08-30T00:21:18.737Z,4.40
2022-08-30T00:24:05.961Z,5.33
2022-08-30T00:26:53.444Z,4.40
2022-08-30T00:29:42.749Z,4.20
2022-08-30T00:32:29.353Z,4.40
2022-08-30T00:35:20.675Z,4.60
2022-08-30T00:38:08.071Z,4.70
2022-08-30T00:40:55.814Z,4.50
2022-08-30T00:43:43.334Z,5.20
2022-08-30T00:46:32.515Z,4.03
2022-08-30T00:49:19.674Z,4.70
2022-08-30T00:52:08.003Z,4.80
2022-08-30T00:54:54.992Z,4.40
2022-08-30T00:57:42.020Z,4.40
2022-08-30T01:00:29.560Z,4.50
2022-08-30T01:03:18.406Z,4.10
2022-08-30T01:06:09.359Z,4.90
2022-08-30T01:08:57.398Z,4.53
2022-08-30T01:11:46.024Z,3.67
2022-08-30T01:14:34.519Z,4.43
2022-08-30T01:17:23.215Z,5.10
2022-08-30T01:20:14.791Z,4.67
2022-08-30T01:23:12.543Z,4.60
2022-08-30T01:25:59.878Z,4.40
2022-08-30T01:28:49.567Z,4.20
2022-08-30T01:31:37.182Z,4.13
2022-08-30T01:34:25.635Z,4.67
2022-08-30T01:37:12.339Z,5.10
2022-08-30T01:40:01.381Z,4.50
2022-08-30T01:42:49.018Z,4.43
2022-08-30T01:45:36.266Z,4.27
2022-08-30T01:48:28.241Z,4.70
2022-08-30T01:51:18.370Z,4.30
2022-08-30T01:54:06.364Z,4.23
2022-08-30T01:56:54.525Z,5.03
2022-08-30T01:59:47.667Z,4.60
2022-08-30T02:02:34.754Z,4.83
2022-08-30T02:05:21.519Z,4.40
2022-08-30T02:08:09.130Z,4.27
2022-08-30T02:10:56.029Z,4.10
2022-08-30T02:13:46.080Z,4.40
2022-08-30T02:17:31.596Z,5.43
2022-08-30T02:20:18.500Z,4.37
2022-08-30T02:23:05.461Z,4.17
2022-08-30T02:25:52.345Z,4.50
2022-08-30T02:28:49.430Z,4.23
2022-08-30T02:31:38.625Z,5.00
2022-08-30T02:34:25.647Z,4.93
2022-08-30T02:37:12.719Z,4.87
2022-08-30T02:40:00.686Z,4.30
2022-08-30T02:42:47.562Z,5.17
2022-08-30T02:45:34.956Z,4.70
2022-08-30T02:48:23.174Z,4.67
2022-08-30T02:51:12.530Z,4.60
2022-08-30T02:53:59.491Z,4.80
2022-08-30T02:56:46.550Z,4.63
2022-08-30T02:59:34.097Z,4.50
2022-08-30T03:02:23.303Z,4.90
2022-08-30T03:05:14.319Z,4.10
2022-08-30T03:08:01.976Z,4.63
2022-08-30T03:10:48.540Z,4.57
2022-08-30T03:13:35.384Z,4.37
2022-08-30T03:16:23.015Z,4.20
2022-08-30T03:19:11.691Z,4.40
2022-08-30T03:22:00.370Z,4.27
2022-08-30T03:24:47.248Z,5.17
2022-08-30T03:27:34.337Z,4.33
2022-08-30T03:30:22.835Z,4.73
2022-08-30T03:33:09.701Z,4.67
2022-08-30T03:35:58.433Z,4.83
2022-08-30T03:38:46.692Z,4.37
2022-08-30T03:41:33.551Z,4.40
2022-08-30T03:44:20.718Z,4.10
2022-08-30T03:47:09.112Z,4.50
2022-08-30T03:49:55.929Z,4.30
2022-08-30T03:52:42.879Z,4.70
2022-08-30T03:55:31.443Z,4.70
2022-08-30T03:58:19.138Z,5.00
2022-08-30T04:01:06.361Z,4.70
2022-08-30T04:03:53.139Z,5.03
2022-08-30T04:06:40.392Z,4.70
2022-08-30T04:09:27.046Z,5.10
2022-08-30T04:12:16.049Z,5.00
2022-08-30T04:15:11.936Z,4.43
2022-08-30T04:17:58.765Z,4.50
2022-08-30T04:20:45.571Z,4.97
2022-08-30T04:23:32.580Z,5.23
2022-08-30T04:26:19.378Z,4.43
2022-08-30T04:29:07.915Z,7.03
2022-08-30T04:31:55.128Z,6.07
2022-08-30T04:34:42.343Z,5.53
2022-08-30T04:37:29.434Z,5.03
2022-08-30T04:40:17.014Z,5.17
2022-08-30T04:43:04.445Z,4.73
2022-08-30T04:45:52.716Z,5.00
2022-08-30T04:48:40.000Z,4.40
2022-08-30T04:51:26.899Z,4.67
2022-08-30T04:54:13.974Z,5.17
2022-08-30T04:57:00.937Z,5.00
2022-08-30T04:59:47.505Z,4.70
2022-08-30T05:02:36.403Z,4.13
2022-08-30T05:05:41.844Z,4.53
2022-08-30T05:08:28.467Z,4.50
2022-08-30T05:11:15.900Z,4.83
2022-08-30T05:14:02.498Z,4.23
2022-08-30T05:16:49.980Z,4.67
2022-08-30T05:19:38.390Z,4.80
2022-08-30T05:22:25.124Z,4.70
2022-08-30T05:25:14.720Z,4.37
2022-08-30T05:28:01.549Z,4.73
2022-08-30T05:30:48.465Z,5.07
2022-08-30T05:33:38.841Z,4.77
2022-08-30T05:36:30.139Z,4.77
2022-08-30T05:39:16.968Z,5.60
2022-08-30T05:42:08.070Z,5.10
2022-08-30T05:44:55.551Z,5.27
2022-08-30T05:47:42.815Z,5.17
2022-08-30T05:50:29.776Z,5.63
2022-08-30T05:53:18.163Z,6.00
2022-08-30T05:56:07.393Z,5.83
2022-08-30T05:58:55.136Z,4.77
2022-08-30T06:01:45.144Z,4.70
2022-08-30T06:04:32.769Z,3.57
2022-08-30T06:07:22.458Z,3.97
2022-08-30T06:10:12.478Z,4.40
2022-08-30T06:12:59.317Z,5.20
2022-08-30T06:15:47.220Z,5.70
2022-08-30T06:18:34.245Z,6.30
2022-08-30T06:21:23.644Z,5.70
2022-08-30T06:24:12.124Z,5.53
2022-08-30T06:27:00.689Z,5.47
2022-08-30T06:29:47.800Z,5.27
2022-08-30T06:32:34.574Z,5.37
2022-08-30T06:35:21.508Z,5.17
2022-08-30T06:38:08.444Z,4.97
2022-08-30T06:40:55.557Z,5.60
2022-08-30T06:43:48.690Z,5.67
2022-08-30T06:46:38.535Z,4.73
2022-08-30T06:49:25.959Z,5.32
2022-08-30T06:52:12.761Z,5.43
2022-08-30T06:54:59.701Z,4.60
2022-08-30T06:57:47.829Z,4.75
2022-08-30T07:00:36.396Z,4.55
2022-08-30T07:03:24.096Z,4.50
2022-08-30T07:06:11.984Z,4.40
2022-08-30T07:09:05.487Z,4.97
2022-08-30T07:12:03.418Z,4.30
2022-08-30T07:14:50.959Z,5.05
2022-08-30T07:17:57.350Z,4.40
2022-08-30T07:20:44.461Z,5.03
2022-08-30T07:23:31.171Z,4.40
2022-08-30T07:26:21.329Z,4.53
2022-08-30T07:29:09.344Z,4.65
2022-08-30T07:31:56.331Z,4.28
2022-08-30T07:34:44.888Z,4.40
2022-08-30T07:37:32.337Z,4.22
2022-08-30T07:40:19.623Z,4.50
2022-08-30T07:43:06.815Z,4.50
2022-08-30T07:45:53.964Z,4.35
2022-08-30T07:48:41.322Z,4.68
2022-08-30T07:51:33.185Z,4.15
2022-08-30T07:54:19.775Z,4.45
2022-08-30T07:57:06.958Z,4.95
2022-08-30T07:59:54.410Z,4.10
2022-08-30T08:02:42.538Z,4.15
2022-08-30T08:05:39.088Z,4.20
2022-08-30T08:08:34.335Z,4.68
2022-08-30T08:11:24.706Z,4.63
2022-08-30T08:14:11.995Z,4.25
2022-08-30T08:17:05.756Z,3.53
2022-08-30T08:19:59.127Z,4.13
2022-08-30T08:22:46.267Z,4.22
2022-08-30T08:25:35.478Z,4.20
2022-08-30T08:28:23.060Z,3.88
2022-08-30T08:31:16.314Z,3.47
2022-08-30T08:34:05.884Z,3.45
2022-08-30T08:36:53.807Z,3.63
2022-08-30T08:39:40.607Z,3.58
2022-08-30T08:42:40.715Z,3.58
2022-08-30T08:45:40.962Z,3.67
2022-08-30T08:48:51.742Z,3.28
2022-08-30T08:51:59.271Z,3.42
2022-08-30T08:54:52.705Z,2.75
2022-08-30T08:57:42.119Z,3.30
2022-08-30T09:00:30.078Z,3.40
2022-08-30T09:03:19.174Z,3.15
2022-08-30T09:06:21.386Z,2.75
2022-08-30T09:09:09.161Z,2.78
2022-08-30T09:11:56.141Z,2.92
2022-08-30T09:14:47.592Z,3.83
2022-08-30T09:17:52.223Z,2.58
2022-08-30T09:20:43.343Z,2.78
2022-08-30T09:23:32.448Z,2.95
2022-08-30T09:26:30.608Z,2.83
2022-08-30T09:29:18.836Z,2.70
2022-08-30T09:32:24.888Z,2.63
2022-08-30T09:35:20.521Z,2.38
2022-08-30T09:38:10.341Z,2.20
2022-08-30T09:40:59.429Z,2.40
2022-08-30T09:43:46.142Z,2.50
2022-08-30T09:46:46.640Z,2.65
2022-08-30T09:49:44.475Z,3.08
2022-08-30T09:52:43.012Z,2.45
2022-08-30T09:55:54.226Z,2.42
2022-08-30T09:58:57.661Z,2.75
2022-08-30T10:01:48.610Z,2.67
2022-08-30T10:04:45.676Z,3.10
2022-08-30T10:07:39.673Z,2.75
2022-08-30T10:10:33.712Z,2.50
2022-08-30T10:13:54.439Z,2.60
2022-08-30T10:16:51.039Z,3.00
2022-08-30T10:19:51.386Z,2.75
2022-08-30T10:22:43.270Z,3.00
2022-08-30T10:25:39.632Z,2.67
2022-08-30T10:28:31.033Z,3.13
2022-08-30T10:31:26.059Z,3.00
2022-08-30T10:34:18.846Z,2.47
2022-08-30T10:37:13.419Z,3.05
2022-08-30T10:40:26.069Z,3.00
2022-08-30T10:43:21.848Z,3.05
2022-08-30T10:46:17.287Z,3.00
2022-08-30T10:49:11.711Z,3.10
2022-08-30T10:52:07.089Z,2.90
2022-08-30T10:55:01.547Z,3.25
2022-08-30T10:57:48.650Z,2.58
2022-08-30T11:00:51.925Z,3.00
2022-08-30T11:04:18.566Z,2.97
2022-08-30T11:07:14.510Z,2.63
2022-08-30T11:10:33.738Z,2.75
2022-08-30T11:13:24.847Z,3.50
2022-08-30T11:16:15.856Z,2.60
2022-08-30T11:19:03.194Z,2.75
2022-08-30T11:21:51.119Z,2.90
2022-08-30T11:25:11.394Z,2.80
2022-08-30T11:28:00.258Z,3.05
2022-08-30T11:30:52.174Z,2.70
2022-08-30T11:33:46.438Z,3.17
2022-08-30T11:37:09.666Z,2.85
2022-08-30T11:40:02.054Z,2.95
2022-08-30T11:42:52.913Z,2.95
2022-08-30T11:45:55.703Z,2.78
2022-08-30T11:48:54.434Z,3.00
2022-08-30T11:52:26.387Z,3.17
2022-08-30T11:55:42.444Z,3.00
2022-08-30T11:58:48.121Z,2.90
2022-08-30T12:01:49.947Z,3.42
2022-08-30T12:04:46.650Z,2.85
2022-08-30T12:07:58.794Z,3.30
2022-08-30T12:10:48.528Z,2.92
2022-08-30T12:13:54.181Z,2.90
2022-08-30T12:17:00.784Z,3.00
2022-08-30T12:19:50.555Z,3.38
2022-08-30T12:22:38.048Z,3.38
2022-08-30T12:25:31.391Z,3.15
2022-08-30T12:28:24.028Z,2.95
2022-08-30T12:31:14.068Z,3.10
2022-08-30T12:34:04.223Z,3.40
2022-08-30T12:37:00.546Z,3.17
2022-08-30T12:39:53.718Z,2.95
2022-08-30T12:42:44.586Z,2.67
2022-08-30T12:45:35.095Z,3.20
2022-08-30T12:48:23.014Z,2.90
2022-08-30T12:51:28.688Z,2.97
2022-08-30T12:54:19.889Z,3.00
2022-08-30T12:57:25.316Z,2.83
2022-08-30T13:00:29.503Z,3.30
2022-08-30T13:03:30.922Z,2.58
2022-08-30T13:06:38.703Z,3.17
2022-08-30T13:09:32.555Z,2.90
2022-08-30T13:12:24.134Z,2.85
2022-08-30T13:15:14.508Z,2.80
2022-08-30T13:18:30.538Z,2.63
2022-08-30T13:21:25.132Z,3.20
2022-08-30T13:24:12.223Z,3.10
2022-08-30T13:27:09.635Z,3.05
2022-08-30T13:29:57.344Z,3.40
2022-08-30T13:32:45.253Z,3.15
2022-08-30T13:35:33.647Z,3.35
2022-08-30T13:38:22.065Z,3.00
2022-08-30T13:41:09.334Z,3.20
2022-08-30T13:44:14.066Z,2.63
2022-08-30T13:50:11.570Z,3.80
2022-08-30T13:53:12.107Z,3.28
2022-08-30T13:56:08.524Z,3.53
2022-08-30T13:59:02.902Z,3.70
2022-08-30T14:05:02.194Z,3.70
2022-08-30T14:07:50.247Z,3.40
2022-08-30T14:10:46.642Z,3.28
2022-08-30T14:13:35.643Z,3.47
2022-08-30T14:16:27.567Z,3.47
2022-08-30T14:19:16.395Z,4.10
2022-08-30T14:22:03.380Z,3.95
2022-08-30T14:24:50.740Z,3.67
2022-08-30T14:27:38.035Z,3.67
2022-08-30T14:30:28.040Z,3.80
2022-08-30T14:33:15.584Z,3.88
2022-08-30T14:36:02.624Z,3.65
2022-08-30T14:38:50.300Z,3.53
2022-08-30T14:41:43.630Z,3.35
2022-08-30T14:44:45.648Z,3.55
2022-08-30T14:47:39.614Z,3.63
2022-08-30T14:50:27.992Z,3.30
2022-08-30T14:53:27.930Z,3.03
2022-08-30T14:56:23.513Z,3.15
2022-08-30T14:59:13.517Z,3.22
2022-08-30T15:02:00.859Z,3.45
2022-08-30T15:04:50.594Z,3.30
2022-08-30T15:07:38.793Z,3.40
2022-08-30T15:10:26.654Z,3.70
2022-08-30T15:13:13.790Z,3.58
2022-08-30T15:16:01.123Z,3.80
2022-08-30T15:18:48.269Z,3.47
2022-08-30T15:21:39.086Z,3.72
2022-08-30T15:24:29.611Z,3.53
2022-08-30T15:27:17.371Z,3.15
2022-08-30T15:30:05.011Z,3.55
2022-08-30T15:32:53.117Z,3.53
2022-08-30T15:35:46.984Z,3.33
2022-08-30T15:38:42.404Z,3.22
2022-08-30T15:41:30.581Z,2.88
2022-08-30T15:44:17.749Z,3.30
2022-08-30T15:47:06.632Z,3.20
2022-08-30T15:49:57.146Z,3.35
2022-08-30T15:52:45.007Z,3.20
2022-08-30T15:55:33.450Z,3.40
2022-08-30T15:58:46.861Z,3.50
2022-08-30T16:01:42.013Z,2.90
2022-08-30T16:04:30.727Z,3.05
2022-08-30T16:07:18.113Z,3.15
2022-08-30T16:10:05.474Z,2.97
2022-08-30T16:12:53.596Z,3.38
2022-08-30T16:15:41.074Z,2.92
2022-08-30T16:18:27.959Z,3.17
2022-08-30T16:21:16.598Z,3.25
2022-08-30T16:24:05.021Z,2.92
2022-08-30T16:26:52.313Z,3.35
2022-08-30T16:29:40.224Z,3.00
2022-08-30T16:32:26.941Z,3.25
2022-08-30T16:35:14.063Z,3.42
2022-08-30T16:38:01.291Z,3.35
2022-08-30T16:40:49.399Z,2.75
2022-08-30T16:43:38.072Z,2.80
2022-08-30T16:46:28.111Z,3.38
2022-08-30T16:49:15.600Z,2.83
2022-08-30T16:52:03.689Z,3.35
2022-08-30T16:54:52.121Z,3.42
2022-08-30T16:57:41.181Z,3.28
2022-08-30T17:00:31.368Z,3.33
2022-08-30T17:03:21.134Z,3.38
2022-08-30T17:06:08.456Z,3.33
2022-08-30T17:08:56.019Z,3.40
2022-08-30T17:11:44.025Z,3.92
2022-08-30T17:14:32.156Z,3.63
2022-08-30T17:17:22.132Z,3.47
2022-08-30T17:20:11.789Z,3.15
2022-08-30T17:22:59.076Z,3.70
2022-08-30T17:25:49.753Z,3.08
2022-08-30T17:28:37.058Z,3.40
2022-08-30T17:31:24.692Z,3.40
2022-08-30T17:34:13.320Z,2.88
2022-08-30T17:37:02.400Z,3.70
2022-08-30T17:39:50.869Z,4.05
2022-08-30T17:42:38.236Z,2.90
2022-08-30T17:45:25.982Z,2.53
2022-08-30T17:48:13.792Z,3.65
2022-08-30T17:51:01.360Z,3.40
2022-08-30T17:53:49.725Z,3.50
2022-08-30T17:56:37.104Z,3.20
2022-08-30T17:59:25.721Z,3.20
2022-08-30T18:02:14.401Z,3.28
2022-08-30T18:05:01.820Z,3.22
2022-08-30T18:07:48.910Z,3.40
2022-08-30T18:10:37.237Z,3.05
2022-08-30T18:13:24.791Z,3.13
2022-08-30T18:16:12.290Z,3.23
2022-08-30T18:18:59.545Z,3.08
2022-08-30T18:21:47.303Z,3.38
2022-08-30T18:24:35.872Z,3.40
2022-08-30T18:27:24.412Z,3.58
2022-08-30T18:30:12.540Z,3.25
2022-08-30T18:32:59.626Z,3.10
2022-08-30T18:35:48.378Z,3.27
2022-08-30T18:38:35.941Z,3.73
2022-08-30T18:41:23.344Z,3.50
2022-08-30T18:44:27.391Z,3.70
2022-08-30T18:47:15.409Z,3.93
2022-08-30T18:50:03.082Z,2.70
2022-08-30T18:52:50.426Z,3.23
2022-08-30T18:55:38.375Z,2.80
2022-08-30T18:58:25.805Z,3.20
2022-08-30T19:01:16.425Z,3.07
2022-08-30T19:04:07.893Z,3.33
2022-08-30T19:06:54.977Z,3.40
2022-08-30T19:09:43.035Z,3.50
2022-08-30T19:12:30.530Z,3.70
2022-08-30T19:15:18.753Z,3.80
2022-08-30T19:18:17.234Z,3.43
2022-08-30T19:21:06.593Z,3.57
2022-08-30T19:24:00.744Z,3.33
2022-08-30T19:26:48.079Z,3.60
2022-08-30T19:29:35.522Z,3.53
2022-08-30T19:32:24.495Z,3.30
2022-08-30T19:35:14.821Z,3.47
2022-08-30T19:38:05.191Z,3.10
2022-08-30T19:40:54.789Z,3.40
2022-08-30T19:43:42.730Z,3.23
2022-08-30T19:46:29.976Z,3.27
2022-08-30T19:49:20.724Z,3.10
2022-08-30T19:52:10.494Z,3.17
2022-08-30T19:54:58.678Z,3.23
2022-08-30T19:57:45.650Z,3.43
2022-08-30T20:00:36.476Z,2.90
2022-08-30T20:03:30.344Z,3.40
2022-08-30T20:06:18.527Z,3.77
2022-08-30T20:09:10.575Z,3.57
2022-08-30T20:11:59.100Z,3.57
2022-08-30T20:14:47.182Z,3.50
2022-08-30T20:18:02.031Z,3.43
2022-08-30T20:20:41.942Z,3.30
2022-08-30T20:23:37.128Z,3.17
2022-08-30T20:26:34.012Z,3.10
2022-08-30T20:29:21.770Z,3.30
2022-08-30T20:32:09.623Z,3.37
2022-08-30T20:34:56.534Z,3.10
2022-08-30T20:37:44.496Z,3.13
2022-08-30T20:40:31.854Z,3.40
2022-08-30T20:43:21.129Z,3.10
2022-08-30T20:46:12.260Z,3.00
2022-08-30T20:49:01.475Z,3.10
2022-08-30T20:51:54.204Z,3.27
2022-08-30T20:54:41.677Z,2.80
2022-08-30T20:57:28.826Z,3.17
2022-08-30T21:00:18.155Z,3.37
2022-08-30T21:03:11.470Z,3.27
2022-08-30T21:06:13.602Z,3.50
2022-08-30T21:09:00.528Z,3.27
2022-08-30T21:11:48.013Z,2.73
2022-08-30T21:14:35.236Z,3.33
2022-08-30T21:17:24.217Z,3.20
2022-08-30T21:20:12.056Z,3.00
2022-08-30T21:22:59.145Z,3.53
2022-08-30T21:25:46.006Z,3.20
2022-08-30T21:28:33.305Z,2.73
2022-08-30T21:31:22.824Z,3.47
2022-08-30T21:34:15.886Z,3.17
2022-08-30T21:37:03.525Z,3.37
2022-08-30T21:39:50.741Z,3.93
2022-08-30T21:42:39.869Z,2.97
2022-08-30T21:45:27.091Z,3.10
2022-08-30T21:48:15.094Z,3.10
2022-08-30T21:51:08.027Z,3.60
2022-08-30T21:53:55.519Z,3.20
2022-08-30T21:56:46.025Z,3.20
2022-08-30T21:59:33.939Z,2.70
2022-08-30T22:02:21.394Z,2.93
2022-08-30T22:05:09.357Z,3.00
2022-08-30T22:08:03.400Z,3.07
2022-08-30T22:10:50.393Z,3.77
2022-08-30T22:13:38.478Z,3.90
2022-08-30T22:16:27.501Z,3.03
2022-08-30T22:19:15.718Z,3.70
2022-08-30T22:22:06.655Z,2.80
2022-08-30T22:24:54.818Z,2.83
2022-08-30T22:27:42.092Z,3.13
2022-08-30T22:30:29.068Z,2.80
2022-08-30T22:33:18.537Z,2.43
2022-08-30T22:36:10.091Z,2.97
2022-08-30T22:38:58.928Z,2.87
2022-08-30T22:41:47.572Z,2.90
2022-08-30T22:44:34.954Z,2.93
2022-08-30T22:47:21.937Z,2.27
2022-08-30T22:50:09.402Z,2.40
2022-08-30T22:52:56.616Z,2.50
2022-08-30T22:55:43.602Z,3.43
2022-08-30T22:58:32.010Z,2.77
2022-08-30T23:01:22.025Z,2.80
2022-08-30T23:04:09.929Z,2.87
2022-08-30T23:06:56.976Z,3.17
2022-08-30T23:09:43.964Z,3.13
2022-08-30T23:12:31.399Z,3.00
2022-08-30T23:15:19.737Z,3.47
2022-08-30T23:18:06.630Z,3.27
2022-08-30T23:20:53.739Z,3.03
2022-08-30T23:23:58.800Z,3.60
2022-08-30T23:27:04.981Z,2.90
2022-08-30T23:30:09.426Z,3.87
2022-08-30T23:33:15.382Z,3.93
2022-08-30T23:36:26.159Z,4.33
2022-08-30T23:39:30.836Z,3.37
2022-08-30T23:42:35.498Z,3.43
2022-08-30T23:45:40.084Z,3.57
2022-08-30T23:48:50.027Z,4.03
2022-08-30T23:51:56.972Z,3.43
2022-08-30T23:55:01.875Z,3.97
2022-08-30T23:58:07.272Z,3.50
